sensor_id;sensor_type;location;lat;lon;timestamp;P1;durP1;ratioP1;P2;durP2;ratioP2
12218;SDS011;6172;42.646;23.344;2023-04-03T00:00:13;3.90;;;1.10;;
12218;SDS011;6172;42.646;23.344;2023-04-03T00:02:43;2.27;;;1.20;;
12218;SDS011;6172;42.646;23.344;2023-04-03T00:05:10;1.40;;;1.30;;
12218;SDS011;6172;42.646;23.344;2023-04-03T00:07:37;2.07;;;1.10;;
12218;SDS011;6172;42.646;23.344;2023-04-03T00:10:04;1.80;;;1.40;;
12218;SDS011;6172;42.646;23.344;2023-04-03T00:12:36;3.70;;;1.37;;
12218;SDS011;6172;42.646;23.344;2023-04-03T00:15:03;2.83;;;1.30;;
12218;SDS011;6172;42.646;23.344;2023-04-03T00:17:30;4.57;;;1.43;;
12218;SDS011;6172;42.646;23.344;2023-04-03T00:19:57;3.27;;;1.40;;
12218;SDS011;6172;42.646;23.344;2023-04-03T00:22:24;4.13;;;1.50;;
12218;SDS011;6172;42.646;23.344;2023-04-03T00:24:53;3.80;;;1.17;;
12218;SDS011;6172;42.646;23.344;2023-04-03T00:27:20;2.70;;;1.30;;
12218;SDS011;6172;42.646;23.344;2023-04-03T00:29:49;4.50;;;1.30;;
12218;SDS011;6172;42.646;23.344;2023-04-03T00:32:18;3.27;;;1.30;;
12218;SDS011;6172;42.646;23.344;2023-04-03T00:34:45;5.60;;;1.43;;
12218;SDS011;6172;42.646;23.344;2023-04-03T00:37:13;1.97;;;1.00;;
12218;SDS011;6172;42.646;23.344;2023-04-03T00:39:40;2.17;;;1.53;;
12218;SDS011;6172;42.646;23.344;2023-04-03T00:42:07;2.40;;;1.10;;
12218;SDS011;6172;42.646;23.344;2023-04-03T00:47:40;2.37;;;1.30;;
12218;SDS011;6172;42.646;23.344;2023-04-03T00:50:08;2.07;;;0.87;;
12218;SDS011;6172;42.646;23.344;2023-04-03T00:52:35;2.40;;;0.70;;
12218;SDS011;6172;42.646;23.344;2023-04-03T00:55:05;2.47;;;1.00;;
12218;SDS011;6172;42.646;23.344;2023-04-03T00:57:36;4.00;;;1.00;;
12218;SDS011;6172;42.646;23.344;2023-04-03T01:00:06;3.80;;;1.10;;
12218;SDS011;6172;42.646;23.344;2023-04-03T01:02:36;2.27;;;1.10;;
12218;SDS011;6172;42.646;23.344;2023-04-03T01:05:07;2.80;;;1.00;;
12218;SDS011;6172;42.646;23.344;2023-04-03T01:07:35;2.00;;;1.10;;
12218;SDS011;6172;42.646;23.344;2023-04-03T01:10:03;1.97;;;1.10;;
12218;SDS011;6172;42.646;23.344;2023-04-03T01:12:34;3.23;;;1.20;;
12218;SDS011;6172;42.646;23.344;2023-04-03T01:15:03;3.23;;;1.33;;
12218;SDS011;6172;42.646;23.344;2023-04-03T01:17:32;2.70;;;1.20;;
12218;SDS011;6172;42.646;23.344;2023-04-03T01:23:23;4.67;;;1.40;;
12218;SDS011;6172;42.646;23.344;2023-04-03T01:25:58;5.10;;;1.70;;
12218;SDS011;6172;42.646;23.344;2023-04-03T01:28:26;5.80;;;1.23;;
12218;SDS011;6172;42.646;23.344;2023-04-03T01:30:58;3.40;;;1.20;;
12218;SDS011;6172;42.646;23.344;2023-04-03T01:33:30;2.33;;;1.20;;
12218;SDS011;6172;42.646;23.344;2023-04-03T01:35:57;1.43;;;0.80;;
12218;SDS011;6172;42.646;23.344;2023-04-03T01:38:25;2.03;;;1.20;;
12218;SDS011;6172;42.646;23.344;2023-04-03T01:40:51;2.57;;;1.50;;
12218;SDS011;6172;42.646;23.344;2023-04-03T01:43:19;4.73;;;1.33;;
12218;SDS011;6172;42.646;23.344;2023-04-03T01:45:45;1.80;;;1.10;;
12218;SDS011;6172;42.646;23.344;2023-04-03T01:48:14;3.20;;;1.30;;
12218;SDS011;6172;42.646;23.344;2023-04-03T01:50:43;2.93;;;1.03;;
12218;SDS011;6172;42.646;23.344;2023-04-03T01:53:10;1.77;;;1.20;;
12218;SDS011;6172;42.646;23.344;2023-04-03T01:55:37;4.33;;;1.57;;
12218;SDS011;6172;42.646;23.344;2023-04-03T01:58:04;4.17;;;1.00;;
12218;SDS011;6172;42.646;23.344;2023-04-03T02:00:31;6.17;;;1.50;;
12218;SDS011;6172;42.646;23.344;2023-04-03T02:02:58;1.73;;;1.13;;
12218;SDS011;6172;42.646;23.344;2023-04-03T02:05:25;4.23;;;1.37;;
12218;SDS011;6172;42.646;23.344;2023-04-03T02:07:54;4.03;;;1.23;;
12218;SDS011;6172;42.646;23.344;2023-04-03T02:10:21;4.17;;;1.60;;
12218;SDS011;6172;42.646;23.344;2023-04-03T02:12:48;4.37;;;1.60;;
12218;SDS011;6172;42.646;23.344;2023-04-03T02:15:15;2.30;;;1.50;;
12218;SDS011;6172;42.646;23.344;2023-04-03T02:17:44;6.23;;;2.13;;
12218;SDS011;6172;42.646;23.344;2023-04-03T02:20:11;3.50;;;1.80;;
12218;SDS011;6172;42.646;23.344;2023-04-03T02:22:38;3.97;;;1.50;;
12218;SDS011;6172;42.646;23.344;2023-04-03T02:25:09;4.80;;;1.30;;
12218;SDS011;6172;42.646;23.344;2023-04-03T02:27:37;6.43;;;2.50;;
12218;SDS011;6172;42.646;23.344;2023-04-03T02:30:05;4.27;;;2.20;;
12218;SDS011;6172;42.646;23.344;2023-04-03T02:32:35;6.60;;;1.90;;
12218;SDS011;6172;42.646;23.344;2023-04-03T02:35:02;3.90;;;1.67;;
12218;SDS011;6172;42.646;23.344;2023-04-03T02:37:30;4.63;;;2.00;;
12218;SDS011;6172;42.646;23.344;2023-04-03T02:39:57;4.67;;;2.43;;
12218;SDS011;6172;42.646;23.344;2023-04-03T02:42:25;7.60;;;3.33;;
12218;SDS011;6172;42.646;23.344;2023-04-03T02:44:52;4.70;;;3.23;;
12218;SDS011;6172;42.646;23.344;2023-04-03T02:47:19;6.60;;;4.03;;
12218;SDS011;6172;42.646;23.344;2023-04-03T02:49:46;8.00;;;3.97;;
12218;SDS011;6172;42.646;23.344;2023-04-03T02:52:13;6.00;;;3.40;;
12218;SDS011;6172;42.646;23.344;2023-04-03T02:54:40;7.70;;;3.50;;
12218;SDS011;6172;42.646;23.344;2023-04-03T02:57:07;5.77;;;3.23;;
12218;SDS011;6172;42.646;23.344;2023-04-03T02:59:36;5.40;;;3.20;;
12218;SDS011;6172;42.646;23.344;2023-04-03T03:02:05;3.80;;;3.07;;
12218;SDS011;6172;42.646;23.344;2023-04-03T03:04:32;6.80;;;2.90;;
12218;SDS011;6172;42.646;23.344;2023-04-03T03:06:59;5.27;;;2.90;;
12218;SDS011;6172;42.646;23.344;2023-04-03T03:09:26;5.23;;;3.13;;
12218;SDS011;6172;42.646;23.344;2023-04-03T03:11:53;9.20;;;3.37;;
12218;SDS011;6172;42.646;23.344;2023-04-03T03:14:20;12.83;;;7.17;;
12218;SDS011;6172;42.646;23.344;2023-04-03T03:16:48;13.33;;;5.90;;
12218;SDS011;6172;42.646;23.344;2023-04-03T03:19:15;8.33;;;2.60;;
12218;SDS011;6172;42.646;23.344;2023-04-03T03:21:42;12.03;;;3.60;;
12218;SDS011;6172;42.646;23.344;2023-04-03T03:24:09;7.77;;;3.67;;
12218;SDS011;6172;42.646;23.344;2023-04-03T03:26:37;7.50;;;3.47;;
12218;SDS011;6172;42.646;23.344;2023-04-03T03:29:03;8.80;;;3.87;;
12218;SDS011;6172;42.646;23.344;2023-04-03T03:31:30;8.47;;;3.50;;
12218;SDS011;6172;42.646;23.344;2023-04-03T03:33:59;7.80;;;3.13;;
12218;SDS011;6172;42.646;23.344;2023-04-03T03:36:26;6.87;;;3.40;;
12218;SDS011;6172;42.646;23.344;2023-04-03T03:38:53;7.60;;;2.97;;
12218;SDS011;6172;42.646;23.344;2023-04-03T03:41:20;6.20;;;2.90;;
12218;SDS011;6172;42.646;23.344;2023-04-03T03:43:46;7.60;;;2.60;;
12218;SDS011;6172;42.646;23.344;2023-04-03T03:46:13;5.60;;;2.30;;
12218;SDS011;6172;42.646;23.344;2023-04-03T03:48:40;5.77;;;2.30;;
12218;SDS011;6172;42.646;23.344;2023-04-03T03:51:08;10.83;;;3.47;;
12218;SDS011;6172;42.646;23.344;2023-04-03T03:53:36;5.27;;;2.30;;
12218;SDS011;6172;42.646;23.344;2023-04-03T03:56:03;7.90;;;2.80;;
12218;SDS011;6172;42.646;23.344;2023-04-03T03:58:30;9.13;;;3.07;;
12218;SDS011;6172;42.646;23.344;2023-04-03T04:00:59;7.63;;;1.90;;
12218;SDS011;6172;42.646;23.344;2023-04-03T04:03:27;8.60;;;2.77;;
12218;SDS011;6172;42.646;23.344;2023-04-03T04:05:54;14.83;;;3.87;;
12218;SDS011;6172;42.646;23.344;2023-04-03T04:08:23;8.30;;;3.20;;
12218;SDS011;6172;42.646;23.344;2023-04-03T04:10:50;10.37;;;3.10;;
12218;SDS011;6172;42.646;23.344;2023-04-03T04:13:17;7.77;;;3.20;;
12218;SDS011;6172;42.646;23.344;2023-04-03T04:15:45;10.03;;;3.63;;
12218;SDS011;6172;42.646;23.344;2023-04-03T04:18:12;5.53;;;2.57;;
12218;SDS011;6172;42.646;23.344;2023-04-03T04:20:39;8.13;;;3.10;;
12218;SDS011;6172;42.646;23.344;2023-04-03T04:23:05;7.97;;;2.93;;
12218;SDS011;6172;42.646;23.344;2023-04-03T04:25:34;5.03;;;2.50;;
12218;SDS011;6172;42.646;23.344;2023-04-03T04:28:01;6.03;;;2.70;;
12218;SDS011;6172;42.646;23.344;2023-04-03T04:30:27;5.30;;;3.00;;
12218;SDS011;6172;42.646;23.344;2023-04-03T04:32:55;5.30;;;2.23;;
12218;SDS011;6172;42.646;23.344;2023-04-03T04:35:21;12.03;;;3.73;;
12218;SDS011;6172;42.646;23.344;2023-04-03T04:37:49;13.33;;;4.67;;
12218;SDS011;6172;42.646;23.344;2023-04-03T04:40:16;16.17;;;4.60;;
12218;SDS011;6172;42.646;23.344;2023-04-03T04:42:45;16.67;;;3.80;;
12218;SDS011;6172;42.646;23.344;2023-04-03T04:45:12;18.27;;;3.97;;
12218;SDS011;6172;42.646;23.344;2023-04-03T04:47:40;14.23;;;3.70;;
12218;SDS011;6172;42.646;23.344;2023-04-03T04:50:07;19.07;;;3.80;;
12218;SDS011;6172;42.646;23.344;2023-04-03T04:52:34;15.37;;;4.00;;
12218;SDS011;6172;42.646;23.344;2023-04-03T04:55:01;18.87;;;4.50;;
12218;SDS011;6172;42.646;23.344;2023-04-03T04:57:28;17.30;;;4.13;;
12218;SDS011;6172;42.646;23.344;2023-04-03T04:59:57;10.03;;;4.00;;
12218;SDS011;6172;42.646;23.344;2023-04-03T05:02:23;11.07;;;4.60;;
12218;SDS011;6172;42.646;23.344;2023-04-03T05:04:51;14.33;;;4.50;;
12218;SDS011;6172;42.646;23.344;2023-04-03T05:07:18;10.70;;;4.67;;
12218;SDS011;6172;42.646;23.344;2023-04-03T05:09:45;16.20;;;5.00;;
12218;SDS011;6172;42.646;23.344;2023-04-03T05:12:12;11.80;;;4.73;;
12218;SDS011;6172;42.646;23.344;2023-04-03T05:14:39;11.27;;;3.70;;
12218;SDS011;6172;42.646;23.344;2023-04-03T05:17:07;12.43;;;5.17;;
12218;SDS011;6172;42.646;23.344;2023-04-03T05:19:34;11.07;;;4.73;;
12218;SDS011;6172;42.646;23.344;2023-04-03T05:22:01;16.63;;;4.70;;
12218;SDS011;6172;42.646;23.344;2023-04-03T05:24:28;19.33;;;4.57;;
12218;SDS011;6172;42.646;23.344;2023-04-03T05:26:55;10.77;;;3.93;;
12218;SDS011;6172;42.646;23.344;2023-04-03T05:29:22;8.67;;;3.30;;
12218;SDS011;6172;42.646;23.344;2023-04-03T05:31:49;14.67;;;4.43;;
12218;SDS011;6172;42.646;23.344;2023-04-03T05:34:19;11.40;;;4.10;;
12218;SDS011;6172;42.646;23.344;2023-04-03T05:36:45;11.20;;;4.53;;
12218;SDS011;6172;42.646;23.344;2023-04-03T05:39:15;9.93;;;4.33;;
12218;SDS011;6172;42.646;23.344;2023-04-03T05:41:42;10.10;;;3.90;;
12218;SDS011;6172;42.646;23.344;2023-04-03T05:44:09;12.00;;;4.47;;
12218;SDS011;6172;42.646;23.344;2023-04-03T05:46:36;13.10;;;4.50;;
12218;SDS011;6172;42.646;23.344;2023-04-03T05:49:03;9.37;;;3.93;;
12218;SDS011;6172;42.646;23.344;2023-04-03T05:51:32;11.93;;;3.77;;
12218;SDS011;6172;42.646;23.344;2023-04-03T05:54:03;12.10;;;4.63;;
12218;SDS011;6172;42.646;23.344;2023-04-03T05:56:35;19.17;;;5.83;;
12218;SDS011;6172;42.646;23.344;2023-04-03T05:59:02;12.60;;;5.80;;
12218;SDS011;6172;42.646;23.344;2023-04-03T06:01:29;11.33;;;5.90;;
12218;SDS011;6172;42.646;23.344;2023-04-03T06:03:56;14.17;;;5.40;;
12218;SDS011;6172;42.646;23.344;2023-04-03T06:06:23;12.10;;;6.17;;
12218;SDS011;6172;42.646;23.344;2023-04-03T06:08:52;11.93;;;5.17;;
12218;SDS011;6172;42.646;23.344;2023-04-03T06:11:19;9.03;;;5.07;;
12218;SDS011;6172;42.646;23.344;2023-04-03T06:13:46;12.30;;;5.70;;
12218;SDS011;6172;42.646;23.344;2023-04-03T06:16:13;11.43;;;5.77;;
12218;SDS011;6172;42.646;23.344;2023-04-03T06:18:44;9.77;;;6.07;;
12218;SDS011;6172;42.646;23.344;2023-04-03T06:21:11;19.10;;;6.37;;
12218;SDS011;6172;42.646;23.344;2023-04-03T06:23:38;14.73;;;6.33;;
12218;SDS011;6172;42.646;23.344;2023-04-03T06:26:07;14.87;;;6.77;;
12218;SDS011;6172;42.646;23.344;2023-04-03T06:28:34;11.07;;;5.90;;
12218;SDS011;6172;42.646;23.344;2023-04-03T06:31:01;12.97;;;6.40;;
12218;SDS011;6172;42.646;23.344;2023-04-03T06:33:28;11.23;;;6.27;;
12218;SDS011;6172;42.646;23.344;2023-04-03T06:35:56;13.20;;;6.47;;
12218;SDS011;6172;42.646;23.344;2023-04-03T06:38:23;18.30;;;8.50;;
12218;SDS011;6172;42.646;23.344;2023-04-03T06:40:50;11.73;;;8.13;;
12218;SDS011;6172;42.646;23.344;2023-04-03T06:43:20;17.13;;;8.47;;
12218;SDS011;6172;42.646;23.344;2023-04-03T06:45:47;14.60;;;7.63;;
12218;SDS011;6172;42.646;23.344;2023-04-03T06:48:14;19.03;;;7.93;;
12218;SDS011;6172;42.646;23.344;2023-04-03T06:50:44;15.27;;;8.00;;
12218;SDS011;6172;42.646;23.344;2023-04-03T06:53:10;15.77;;;8.13;;
12218;SDS011;6172;42.646;23.344;2023-04-03T06:55:38;20.23;;;8.17;;
12218;SDS011;6172;42.646;23.344;2023-04-03T06:58:06;17.17;;;7.70;;
12218;SDS011;6172;42.646;23.344;2023-04-03T07:00:34;15.47;;;7.47;;
12218;SDS011;6172;42.646;23.344;2023-04-03T07:03:01;12.03;;;7.10;;
12218;SDS011;6172;42.646;23.344;2023-04-03T07:05:29;16.40;;;7.47;;
12218;SDS011;6172;42.646;23.344;2023-04-03T07:07:56;14.10;;;7.83;;
12218;SDS011;6172;42.646;23.344;2023-04-03T07:10:23;13.57;;;8.47;;
12218;SDS011;6172;42.646;23.344;2023-04-03T07:12:50;14.27;;;9.60;;
12218;SDS011;6172;42.646;23.344;2023-04-03T07:15:17;14.70;;;9.83;;
12218;SDS011;6172;42.646;23.344;2023-04-03T07:17:47;22.20;;;12.47;;
12218;SDS011;6172;42.646;23.344;2023-04-03T07:20:14;14.87;;;9.40;;
12218;SDS011;6172;42.646;23.344;2023-04-03T07:22:41;17.93;;;9.77;;
12218;SDS011;6172;42.646;23.344;2023-04-03T07:25:08;15.10;;;9.07;;
12218;SDS011;6172;42.646;23.344;2023-04-03T07:27:35;19.43;;;8.40;;
12218;SDS011;6172;42.646;23.344;2023-04-03T07:30:03;15.10;;;7.87;;
12218;SDS011;6172;42.646;23.344;2023-04-03T07:32:31;12.63;;;7.53;;
12218;SDS011;6172;42.646;23.344;2023-04-03T07:35:00;14.77;;;7.13;;
12218;SDS011;6172;42.646;23.344;2023-04-03T07:37:27;19.33;;;7.77;;
12218;SDS011;6172;42.646;23.344;2023-04-03T07:39:54;13.87;;;7.13;;
12218;SDS011;6172;42.646;23.344;2023-04-03T07:42:22;7.60;;;5.77;;
12218;SDS011;6172;42.646;23.344;2023-04-03T07:44:49;12.00;;;6.60;;
12218;SDS011;6172;42.646;23.344;2023-04-03T07:47:16;12.03;;;6.97;;
12218;SDS011;6172;42.646;23.344;2023-04-03T07:49:45;15.40;;;7.57;;
12218;SDS011;6172;42.646;23.344;2023-04-03T07:52:13;12.37;;;7.60;;
12218;SDS011;6172;42.646;23.344;2023-04-03T07:54:40;12.87;;;7.67;;
12218;SDS011;6172;42.646;23.344;2023-04-03T07:57:07;15.77;;;7.03;;
12218;SDS011;6172;42.646;23.344;2023-04-03T07:59:34;17.20;;;7.67;;
12218;SDS011;6172;42.646;23.344;2023-04-03T08:02:01;14.03;;;7.63;;
12218;SDS011;6172;42.646;23.344;2023-04-03T08:04:30;15.20;;;8.23;;
12218;SDS011;6172;42.646;23.344;2023-04-03T08:06:57;18.33;;;9.13;;
12218;SDS011;6172;42.646;23.344;2023-04-03T08:09:25;20.47;;;8.90;;
12218;SDS011;6172;42.646;23.344;2023-04-03T08:12:04;19.53;;;9.60;;
12218;SDS011;6172;42.646;23.344;2023-04-03T08:14:31;15.83;;;10.00;;
12218;SDS011;6172;42.646;23.344;2023-04-03T08:16:59;23.57;;;12.33;;
12218;SDS011;6172;42.646;23.344;2023-04-03T08:19:28;22.07;;;12.63;;
12218;SDS011;6172;42.646;23.344;2023-04-03T08:21:54;21.70;;;12.57;;
12218;SDS011;6172;42.646;23.344;2023-04-03T08:24:21;20.67;;;12.30;;
12218;SDS011;6172;42.646;23.344;2023-04-03T08:26:55;21.67;;;12.53;;
12218;SDS011;6172;42.646;23.344;2023-04-03T08:29:22;20.50;;;10.57;;
12218;SDS011;6172;42.646;23.344;2023-04-03T08:31:49;21.33;;;12.00;;
12218;SDS011;6172;42.646;23.344;2023-04-03T08:34:16;23.80;;;12.10;;
12218;SDS011;6172;42.646;23.344;2023-04-03T08:36:44;17.07;;;9.70;;
12218;SDS011;6172;42.646;23.344;2023-04-03T08:39:14;18.27;;;10.80;;
12218;SDS011;6172;42.646;23.344;2023-04-03T08:41:46;15.97;;;10.60;;
12218;SDS011;6172;42.646;23.344;2023-04-03T08:44:17;17.23;;;10.70;;
12218;SDS011;6172;42.646;23.344;2023-04-03T08:47:01;16.97;;;9.97;;
12218;SDS011;6172;42.646;23.344;2023-04-03T08:49:39;22.70;;;11.50;;
12218;SDS011;6172;42.646;23.344;2023-04-03T08:52:12;18.57;;;10.67;;
12218;SDS011;6172;42.646;23.344;2023-04-03T08:54:47;19.07;;;9.67;;
12218;SDS011;6172;42.646;23.344;2023-04-03T08:57:17;17.33;;;10.27;;
12218;SDS011;6172;42.646;23.344;2023-04-03T08:59:51;18.37;;;10.03;;
12218;SDS011;6172;42.646;23.344;2023-04-03T09:02:22;18.37;;;9.73;;
12218;SDS011;6172;42.646;23.344;2023-04-03T09:04:52;15.27;;;9.07;;
12218;SDS011;6172;42.646;23.344;2023-04-03T09:07:22;16.37;;;8.13;;
12218;SDS011;6172;42.646;23.344;2023-04-03T09:09:58;12.30;;;6.60;;
12218;SDS011;6172;42.646;23.344;2023-04-03T09:12:31;11.57;;;6.90;;
12218;SDS011;6172;42.646;23.344;2023-04-03T09:15:04;13.80;;;6.47;;
12218;SDS011;6172;42.646;23.344;2023-04-03T09:17:41;14.20;;;7.20;;
12218;SDS011;6172;42.646;23.344;2023-04-03T09:20:21;10.23;;;6.13;;
12218;SDS011;6172;42.646;23.344;2023-04-03T09:22:57;12.63;;;6.97;;
12218;SDS011;6172;42.646;23.344;2023-04-03T09:25:25;14.10;;;7.60;;
12218;SDS011;6172;42.646;23.344;2023-04-03T09:27:58;12.83;;;6.10;;
12218;SDS011;6172;42.646;23.344;2023-04-03T09:30:28;11.40;;;6.27;;
12218;SDS011;6172;42.646;23.344;2023-04-03T09:32:56;10.53;;;4.87;;
12218;SDS011;6172;42.646;23.344;2023-04-03T09:35:24;8.93;;;4.60;;
12218;SDS011;6172;42.646;23.344;2023-04-03T09:37:53;3.40;;;2.37;;
12218;SDS011;6172;42.646;23.344;2023-04-03T09:40:32;3.00;;;1.90;;
12218;SDS011;6172;42.646;23.344;2023-04-03T09:45:48;1.63;;;0.80;;
12218;SDS011;6172;42.646;23.344;2023-04-03T09:48:18;1.17;;;0.60;;
12218;SDS011;6172;42.646;23.344;2023-04-03T09:50:53;1.23;;;0.40;;
12218;SDS011;6172;42.646;23.344;2023-04-03T09:53:31;0.93;;;0.70;;
12218;SDS011;6172;42.646;23.344;2023-04-03T09:56:03;1.63;;;0.70;;
12218;SDS011;6172;42.646;23.344;2023-04-03T09:58:46;1.30;;;0.53;;
12218;SDS011;6172;42.646;23.344;2023-04-03T10:01:36;1.67;;;0.60;;
12218;SDS011;6172;42.646;23.344;2023-04-03T10:04:06;2.20;;;0.67;;
12218;SDS011;6172;42.646;23.344;2023-04-03T10:06:41;4.07;;;1.30;;
12218;SDS011;6172;42.646;23.344;2023-04-03T10:09:16;3.10;;;1.47;;
12218;SDS011;6172;42.646;23.344;2023-04-03T10:12:00;9.70;;;1.90;;
12218;SDS011;6172;42.646;23.344;2023-04-03T10:14:29;4.50;;;1.63;;
12218;SDS011;6172;42.646;23.344;2023-04-03T10:17:01;5.27;;;1.63;;
12218;SDS011;6172;42.646;23.344;2023-04-03T10:19:37;3.20;;;1.93;;
12218;SDS011;6172;42.646;23.344;2023-04-03T10:22:14;3.50;;;2.30;;
12218;SDS011;6172;42.646;23.344;2023-04-03T10:24:48;3.17;;;1.30;;
12218;SDS011;6172;42.646;23.344;2023-04-03T10:27:23;5.47;;;1.83;;
12218;SDS011;6172;42.646;23.344;2023-04-03T10:30:01;4.50;;;1.60;;
12218;SDS011;6172;42.646;23.344;2023-04-03T10:35:32;5.17;;;1.20;;
12218;SDS011;6172;42.646;23.344;2023-04-03T10:38:12;1.70;;;1.07;;
12218;SDS011;6172;42.646;23.344;2023-04-03T10:40:49;0.87;;;0.70;;
12218;SDS011;6172;42.646;23.344;2023-04-03T10:43:26;1.20;;;0.80;;
12218;SDS011;6172;42.646;23.344;2023-04-03T10:46:09;3.47;;;1.10;;
12218;SDS011;6172;42.646;23.344;2023-04-03T10:51:36;3.53;;;0.80;;
12218;SDS011;6172;42.646;23.344;2023-04-03T10:54:11;3.43;;;0.80;;
12218;SDS011;6172;42.646;23.344;2023-04-03T10:57:10;1.47;;;1.00;;
12218;SDS011;6172;42.646;23.344;2023-04-03T10:59:38;1.13;;;0.53;;
12218;SDS011;6172;42.646;23.344;2023-04-03T11:02:12;1.37;;;1.10;;
12218;SDS011;6172;42.646;23.344;2023-04-03T11:04:46;2.53;;;0.93;;
12218;SDS011;6172;42.646;23.344;2023-04-03T11:07:18;0.83;;;0.83;;
12218;SDS011;6172;42.646;23.344;2023-04-03T11:09:48;3.30;;;1.00;;
12218;SDS011;6172;42.646;23.344;2023-04-03T11:12:19;1.00;;;0.90;;
12218;SDS011;6172;42.646;23.344;2023-04-03T11:14:53;2.33;;;1.43;;
12218;SDS011;6172;42.646;23.344;2023-04-03T11:17:25;4.43;;;1.60;;
12218;SDS011;6172;42.646;23.344;2023-04-03T11:20:01;2.60;;;1.50;;
12218;SDS011;6172;42.646;23.344;2023-04-03T11:22:39;2.97;;;1.60;;
12218;SDS011;6172;42.646;23.344;2023-04-03T11:25:14;3.27;;;1.47;;
12218;SDS011;6172;42.646;23.344;2023-04-03T11:27:47;3.17;;;1.73;;
12218;SDS011;6172;42.646;23.344;2023-04-03T11:30:18;2.17;;;1.60;;
12218;SDS011;6172;42.646;23.344;2023-04-03T11:32:56;4.20;;;1.50;;
12218;SDS011;6172;42.646;23.344;2023-04-03T11:38:25;4.93;;;2.50;;
12218;SDS011;6172;42.646;23.344;2023-04-03T11:40:55;4.43;;;2.30;;
12218;SDS011;6172;42.646;23.344;2023-04-03T11:43:26;3.13;;;2.13;;
12218;SDS011;6172;42.646;23.344;2023-04-03T11:45:56;3.73;;;1.67;;
12218;SDS011;6172;42.646;23.344;2023-04-03T11:54:35;2.27;;;1.90;;
12218;SDS011;6172;42.646;23.344;2023-04-03T12:03:32;1.67;;;1.57;;
12218;SDS011;6172;42.646;23.344;2023-04-03T12:09:31;2.70;;;1.80;;
12218;SDS011;6172;42.646;23.344;2023-04-03T12:12:21;2.20;;;1.73;;
12218;SDS011;6172;42.646;23.344;2023-04-03T12:15:17;3.30;;;1.60;;
12218;SDS011;6172;42.646;23.344;2023-04-03T12:17:51;2.03;;;1.47;;
12218;SDS011;6172;42.646;23.344;2023-04-03T12:23:26;2.43;;;1.97;;
12218;SDS011;6172;42.646;23.344;2023-04-03T12:26:01;3.17;;;2.83;;
12218;SDS011;6172;42.646;23.344;2023-04-03T12:28:36;4.30;;;2.80;;
12218;SDS011;6172;42.646;23.344;2023-04-03T12:31:06;3.57;;;3.27;;
12218;SDS011;6172;42.646;23.344;2023-04-03T12:33:38;7.50;;;3.30;;
12218;SDS011;6172;42.646;23.344;2023-04-03T12:36:30;5.43;;;2.73;;
12218;SDS011;6172;42.646;23.344;2023-04-03T12:39:13;3.27;;;2.93;;
12218;SDS011;6172;42.646;23.344;2023-04-03T12:41:57;5.23;;;3.20;;
12218;SDS011;6172;42.646;23.344;2023-04-03T12:44:34;3.63;;;2.77;;
12218;SDS011;6172;42.646;23.344;2023-04-03T12:47:14;4.47;;;3.37;;
12218;SDS011;6172;42.646;23.344;2023-04-03T12:49:49;4.60;;;3.60;;
12218;SDS011;6172;42.646;23.344;2023-04-03T12:52:30;4.63;;;3.70;;
12218;SDS011;6172;42.646;23.344;2023-04-03T12:55:01;4.47;;;3.77;;
12218;SDS011;6172;42.646;23.344;2023-04-03T12:57:32;5.37;;;4.50;;
12218;SDS011;6172;42.646;23.344;2023-04-03T12:59:59;5.57;;;3.60;;
12218;SDS011;6172;42.646;23.344;2023-04-03T13:02:27;8.20;;;4.17;;
12218;SDS011;6172;42.646;23.344;2023-04-03T13:04:57;5.60;;;4.20;;
12218;SDS011;6172;42.646;23.344;2023-04-03T13:07:27;3.63;;;3.33;;
12218;SDS011;6172;42.646;23.344;2023-04-03T13:09:59;4.10;;;3.73;;
12218;SDS011;6172;42.646;23.344;2023-04-03T13:12:32;4.97;;;3.73;;
12218;SDS011;6172;42.646;23.344;2023-04-03T13:15:00;3.73;;;3.43;;
12218;SDS011;6172;42.646;23.344;2023-04-03T13:17:30;6.07;;;4.40;;
12218;SDS011;6172;42.646;23.344;2023-04-03T13:20:09;5.27;;;3.80;;
12218;SDS011;6172;42.646;23.344;2023-04-03T13:22:39;3.80;;;3.40;;
12218;SDS011;6172;42.646;23.344;2023-04-03T13:25:15;3.57;;;3.27;;
12218;SDS011;6172;42.646;23.344;2023-04-03T13:27:47;4.00;;;3.60;;
12218;SDS011;6172;42.646;23.344;2023-04-03T13:30:20;5.03;;;4.00;;
12218;SDS011;6172;42.646;23.344;2023-04-03T13:32:49;6.13;;;4.00;;
12218;SDS011;6172;42.646;23.344;2023-04-03T13:35:27;5.57;;;3.77;;
12218;SDS011;6172;42.646;23.344;2023-04-03T13:38:00;4.30;;;3.50;;
12218;SDS011;6172;42.646;23.344;2023-04-03T13:40:29;5.60;;;4.20;;
12218;SDS011;6172;42.646;23.344;2023-04-03T13:43:05;5.93;;;4.97;;
12218;SDS011;6172;42.646;23.344;2023-04-03T13:45:53;6.90;;;4.67;;
12218;SDS011;6172;42.646;23.344;2023-04-03T13:48:22;6.13;;;5.40;;
12218;SDS011;6172;42.646;23.344;2023-04-03T13:51:18;6.83;;;5.17;;
12218;SDS011;6172;42.646;23.344;2023-04-03T13:53:50;8.50;;;6.93;;
12218;SDS011;6172;42.646;23.344;2023-04-03T13:56:21;7.40;;;6.53;;
12218;SDS011;6172;42.646;23.344;2023-04-03T13:58:55;7.30;;;6.60;;
12218;SDS011;6172;42.646;23.344;2023-04-03T14:01:33;8.63;;;6.73;;
12218;SDS011;6172;42.646;23.344;2023-04-03T14:04:11;5.70;;;5.17;;
12218;SDS011;6172;42.646;23.344;2023-04-03T14:06:41;5.17;;;4.67;;
12218;SDS011;6172;42.646;23.344;2023-04-03T14:09:09;6.60;;;5.10;;
12218;SDS011;6172;42.646;23.344;2023-04-03T14:11:36;5.53;;;5.03;;
12218;SDS011;6172;42.646;23.344;2023-04-03T14:14:09;14.33;;;5.73;;
12218;SDS011;6172;42.646;23.344;2023-04-03T14:16:45;7.67;;;4.93;;
12218;SDS011;6172;42.646;23.344;2023-04-03T14:19:17;5.00;;;4.10;;
12218;SDS011;6172;42.646;23.344;2023-04-03T14:21:49;6.83;;;4.20;;
12218;SDS011;6172;42.646;23.344;2023-04-03T14:24:17;5.23;;;4.73;;
12218;SDS011;6172;42.646;23.344;2023-04-03T14:26:45;5.87;;;4.50;;
12218;SDS011;6172;42.646;23.344;2023-04-03T14:29:14;6.67;;;4.33;;
12218;SDS011;6172;42.646;23.344;2023-04-03T14:31:42;7.43;;;4.60;;
12218;SDS011;6172;42.646;23.344;2023-04-03T14:34:10;6.03;;;4.30;;
12218;SDS011;6172;42.646;23.344;2023-04-03T14:36:38;5.37;;;4.40;;
12218;SDS011;6172;42.646;23.344;2023-04-03T14:39:10;7.47;;;5.07;;
12218;SDS011;6172;42.646;23.344;2023-04-03T14:41:42;5.87;;;4.70;;
12218;SDS011;6172;42.646;23.344;2023-04-03T14:44:16;5.13;;;4.07;;
12218;SDS011;6172;42.646;23.344;2023-04-03T14:46:43;3.80;;;3.50;;
12218;SDS011;6172;42.646;23.344;2023-04-03T14:49:12;5.83;;;4.00;;
12218;SDS011;6172;42.646;23.344;2023-04-03T14:51:41;4.40;;;4.00;;
12218;SDS011;6172;42.646;23.344;2023-04-03T14:54:10;6.27;;;4.47;;
12218;SDS011;6172;42.646;23.344;2023-04-03T14:56:40;4.40;;;4.00;;
12218;SDS011;6172;42.646;23.344;2023-04-03T14:59:09;3.63;;;3.23;;
12218;SDS011;6172;42.646;23.344;2023-04-03T15:01:41;4.47;;;4.00;;
12218;SDS011;6172;42.646;23.344;2023-04-03T15:04:10;4.17;;;2.77;;
12218;SDS011;6172;42.646;23.344;2023-04-03T15:06:38;3.00;;;2.80;;
12218;SDS011;6172;42.646;23.344;2023-04-03T15:09:08;4.30;;;3.20;;
12218;SDS011;6172;42.646;23.344;2023-04-03T15:11:45;3.60;;;2.93;;
12218;SDS011;6172;42.646;23.344;2023-04-03T15:14:14;4.03;;;3.10;;
12218;SDS011;6172;42.646;23.344;2023-04-03T15:16:43;3.83;;;3.40;;
12218;SDS011;6172;42.646;23.344;2023-04-03T15:19:10;3.03;;;2.83;;
12218;SDS011;6172;42.646;23.344;2023-04-03T15:21:38;3.97;;;3.50;;
12218;SDS011;6172;42.646;23.344;2023-04-03T15:24:06;3.80;;;3.50;;
12218;SDS011;6172;42.646;23.344;2023-04-03T15:26:38;5.97;;;3.93;;
12218;SDS011;6172;42.646;23.344;2023-04-03T15:29:05;4.87;;;3.87;;
12218;SDS011;6172;42.646;23.344;2023-04-03T15:31:32;5.10;;;3.90;;
12218;SDS011;6172;42.646;23.344;2023-04-03T15:34:01;5.07;;;4.37;;
12218;SDS011;6172;42.646;23.344;2023-04-03T15:36:29;5.83;;;5.10;;